sensor_id;sensor_type;location;lat;lon;timestamp;P1;durP1;ratioP1;P2;durP2;ratioP2
53253;SDS011;39148;53.332;6.922;2023-01-29T00:01:04;5.30;;;2.65;;
53253;SDS011;39148;53.332;6.922;2023-01-29T00:03:31;5.15;;;2.58;;
53253;SDS011;39148;53.332;6.922;2023-01-29T00:05:57;5.15;;;2.85;;
53253;SDS011;39148;53.332;6.922;2023-01-29T00:08:24;4.80;;;2.60;;
53253;SDS011;39148;53.332;6.922;2023-01-29T00:10:50;5.03;;;2.67;;
53253;SDS011;39148;53.332;6.922;2023-01-29T00:13:16;5.45;;;2.78;;
53253;SDS011;39148;53.332;6.922;2023-01-29T00:15:51;5.28;;;2.92;;
53253;SDS011;39148;53.332;6.922;2023-01-29T00:18:18;6.45;;;3.00;;
53253;SDS011;39148;53.332;6.922;2023-01-29T00:20:44;6.38;;;3.30;;
53253;SDS011;39148;53.332;6.922;2023-01-29T00:23:10;7.40;;;3.05;;
53253;SDS011;39148;53.332;6.922;2023-01-29T00:25:36;5.50;;;2.90;;
53253;SDS011;39148;53.332;6.922;2023-01-29T00:28:02;6.55;;;3.22;;
53253;SDS011;39148;53.332;6.922;2023-01-29T00:30:29;4.88;;;2.80;;
53253;SDS011;39148;53.332;6.922;2023-01-29T00:32:55;7.88;;;3.75;;
53253;SDS011;39148;53.332;6.922;2023-01-29T00:35:22;5.82;;;2.78;;
53253;SDS011;39148;53.332;6.922;2023-01-29T00:37:47;5.22;;;2.95;;
53253;SDS011;39148;53.332;6.922;2023-01-29T00:40:13;5.55;;;3.33;;
53253;SDS011;39148;53.332;6.922;2023-01-29T00:42:39;5.85;;;3.05;;
53253;SDS011;39148;53.332;6.922;2023-01-29T00:45:24;5.50;;;3.20;;
53253;SDS011;39148;53.332;6.922;2023-01-29T00:47:50;6.85;;;3.53;;
53253;SDS011;39148;53.332;6.922;2023-01-29T00:50:16;6.85;;;3.60;;
53253;SDS011;39148;53.332;6.922;2023-01-29T00:52:42;5.15;;;3.00;;
53253;SDS011;39148;53.332;6.922;2023-01-29T00:55:08;5.60;;;2.95;;
53253;SDS011;39148;53.332;6.922;2023-01-29T00:57:35;5.53;;;3.13;;
53253;SDS011;39148;53.332;6.922;2023-01-29T01:00:02;6.93;;;3.30;;
53253;SDS011;39148;53.332;6.922;2023-01-29T01:02:28;5.47;;;3.38;;
53253;SDS011;39148;53.332;6.922;2023-01-29T01:05:14;6.78;;;3.45;;
53253;SDS011;39148;53.332;6.922;2023-01-29T01:10:12;6.07;;;3.30;;
53253;SDS011;39148;53.332;6.922;2023-01-29T01:12:49;6.78;;;3.60;;
53253;SDS011;39148;53.332;6.922;2023-01-29T01:15:18;5.72;;;3.22;;
53253;SDS011;39148;53.332;6.922;2023-01-29T01:17:44;5.82;;;3.20;;
53253;SDS011;39148;53.332;6.922;2023-01-29T01:20:12;6.55;;;3.50;;
53253;SDS011;39148;53.332;6.922;2023-01-29T01:22:38;6.50;;;3.58;;
53253;SDS011;39148;53.332;6.922;2023-01-29T01:25:05;6.43;;;3.42;;
53253;SDS011;39148;53.332;6.922;2023-01-29T01:27:31;7.25;;;3.60;;
53253;SDS011;39148;53.332;6.922;2023-01-29T01:29:58;6.47;;;3.40;;
53253;SDS011;39148;53.332;6.922;2023-01-29T01:32:24;6.25;;;3.42;;
53253;SDS011;39148;53.332;6.922;2023-01-29T01:34:51;6.00;;;3.72;;
53253;SDS011;39148;53.332;6.922;2023-01-29T01:37:17;6.97;;;3.72;;
53253;SDS011;39148;53.332;6.922;2023-01-29T01:39:44;6.68;;;3.67;;
53253;SDS011;39148;53.332;6.922;2023-01-29T01:42:13;8.57;;;3.83;;
53253;SDS011;39148;53.332;6.922;2023-01-29T01:47:32;8.13;;;3.83;;
53253;SDS011;39148;53.332;6.922;2023-01-29T01:50:02;6.60;;;3.75;;
53253;SDS011;39148;53.332;6.922;2023-01-29T01:52:30;5.82;;;3.92;;
53253;SDS011;39148;53.332;6.922;2023-01-29T01:54:57;5.82;;;3.88;;
53253;SDS011;39148;53.332;6.922;2023-01-29T01:57:24;7.38;;;3.88;;
53253;SDS011;39148;53.332;6.922;2023-01-29T01:59:56;7.55;;;3.90;;
53253;SDS011;39148;53.332;6.922;2023-01-29T02:05:08;7.13;;;3.72;;
53253;SDS011;39148;53.332;6.922;2023-01-29T02:07:53;6.22;;;3.72;;
53253;SDS011;39148;53.332;6.922;2023-01-29T02:10:40;7.45;;;4.07;;
53253;SDS011;39148;53.332;6.922;2023-01-29T02:13:07;7.47;;;4.13;;
53253;SDS011;39148;53.332;6.922;2023-01-29T02:15:33;6.57;;;4.25;;
53253;SDS011;39148;53.332;6.922;2023-01-29T02:17:59;5.95;;;4.13;;
53253;SDS011;39148;53.332;6.922;2023-01-29T02:20:26;7.47;;;4.53;;
53253;SDS011;39148;53.332;6.922;2023-01-29T02:30:39;8.15;;;4.28;;
53253;SDS011;39148;53.332;6.922;2023-01-29T02:35:42;6.78;;;4.13;;
53253;SDS011;39148;53.332;6.922;2023-01-29T02:41:00;6.53;;;4.35;;
53253;SDS011;39148;53.332;6.922;2023-01-29T02:48:39;7.72;;;4.50;;
53253;SDS011;39148;53.332;6.922;2023-01-29T02:59:17;7.00;;;4.60;;
53253;SDS011;39148;53.332;6.922;2023-01-29T03:02:11;7.45;;;4.88;;
53253;SDS011;39148;53.332;6.922;2023-01-29T03:04:41;7.38;;;4.97;;
53253;SDS011;39148;53.332;6.922;2023-01-29T03:07:14;8.65;;;5.22;;
53253;SDS011;39148;53.332;6.922;2023-01-29T03:10:01;8.13;;;4.97;;
53253;SDS011;39148;53.332;6.922;2023-01-29T03:12:28;7.93;;;5.13;;
53253;SDS011;39148;53.332;6.922;2023-01-29T03:14:58;8.32;;;5.40;;
53253;SDS011;39148;53.332;6.922;2023-01-29T03:17:37;8.35;;;5.40;;
53253;SDS011;39148;53.332;6.922;2023-01-29T03:20:05;8.23;;;5.50;;
53253;SDS011;39148;53.332;6.922;2023-01-29T03:22:37;8.85;;;5.80;;
53253;SDS011;39148;53.332;6.922;2023-01-29T03:25:04;8.55;;;6.30;;
53253;SDS011;39148;53.332;6.922;2023-01-29T03:27:56;8.90;;;5.78;;
53253;SDS011;39148;53.332;6.922;2023-01-29T03:34:10;9.85;;;6.32;;
53253;SDS011;39148;53.332;6.922;2023-01-29T03:36:36;9.98;;;6.30;;
53253;SDS011;39148;53.332;6.922;2023-01-29T03:39:20;10.68;;;6.22;;
53253;SDS011;39148;53.332;6.922;2023-01-29T03:41:53;10.52;;;6.65;;
53253;SDS011;39148;53.332;6.922;2023-01-29T03:44:37;10.15;;;6.97;;
53253;SDS011;39148;53.332;6.922;2023-01-29T03:49:59;9.75;;;6.85;;
53253;SDS011;39148;53.332;6.922;2023-01-29T03:52:50;8.85;;;6.72;;
53253;SDS011;39148;53.332;6.922;2023-01-29T03:55:15;9.57;;;6.97;;
53253;SDS011;39148;53.332;6.922;2023-01-29T03:57:59;10.50;;;7.35;;
53253;SDS011;39148;53.332;6.922;2023-01-29T04:05:24;11.73;;;7.75;;
53253;SDS011;39148;53.332;6.922;2023-01-29T04:07:56;10.88;;;7.20;;
53253;SDS011;39148;53.332;6.922;2023-01-29T04:10:27;11.80;;;8.25;;
53253;SDS011;39148;53.332;6.922;2023-01-29T04:12:55;11.23;;;7.75;;
53253;SDS011;39148;53.332;6.922;2023-01-29T04:15:23;12.02;;;7.63;;
53253;SDS011;39148;53.332;6.922;2023-01-29T04:17:52;13.13;;;8.38;;
53253;SDS011;39148;53.332;6.922;2023-01-29T04:20:20;10.88;;;8.05;;
53253;SDS011;39148;53.332;6.922;2023-01-29T04:22:47;11.73;;;8.63;;
53253;SDS011;39148;53.332;6.922;2023-01-29T04:25:21;10.15;;;7.70;;
53253;SDS011;39148;53.332;6.922;2023-01-29T04:43:35;11.55;;;8.35;;
53253;SDS011;39148;53.332;6.922;2023-01-29T04:48:31;11.55;;;8.60;;
53253;SDS011;39148;53.332;6.922;2023-01-29T04:51:04;11.85;;;9.07;;
53253;SDS011;39148;53.332;6.922;2023-01-29T04:53:39;12.13;;;8.50;;
53253;SDS011;39148;53.332;6.922;2023-01-29T04:56:44;12.82;;;9.43;;
53253;SDS011;39148;53.332;6.922;2023-01-29T04:59:15;12.13;;;9.38;;
53253;SDS011;39148;53.332;6.922;2023-01-29T05:01:50;11.50;;;9.32;;
53253;SDS011;39148;53.332;6.922;2023-01-29T05:04:17;12.02;;;9.38;;
53253;SDS011;39148;53.332;6.922;2023-01-29T05:06:44;12.70;;;10.30;;
53253;SDS011;39148;53.332;6.922;2023-01-29T05:09:13;12.88;;;10.50;;
53253;SDS011;39148;53.332;6.922;2023-01-29T05:11:40;13.00;;;10.02;;
53253;SDS011;39148;53.332;6.922;2023-01-29T05:14:07;13.20;;;10.10;;
53253;SDS011;39148;53.332;6.922;2023-01-29T05:16:41;13.23;;;10.02;;
53253;SDS011;39148;53.332;6.922;2023-01-29T05:19:08;12.65;;;10.50;;
53253;SDS011;39148;53.332;6.922;2023-01-29T05:21:35;12.75;;;9.48;;
53253;SDS011;39148;53.332;6.922;2023-01-29T05:24:05;14.23;;;11.23;;
53253;SDS011;39148;53.332;6.922;2023-01-29T05:26:31;13.93;;;10.77;;
53253;SDS011;39148;53.332;6.922;2023-01-29T05:29:17;14.05;;;10.35;;
53253;SDS011;39148;53.332;6.922;2023-01-29T05:31:43;16.27;;;10.80;;
53253;SDS011;39148;53.332;6.922;2023-01-29T05:34:09;13.60;;;10.55;;
53253;SDS011;39148;53.332;6.922;2023-01-29T05:36:34;12.85;;;11.00;;
53253;SDS011;39148;53.332;6.922;2023-01-29T05:39:00;14.20;;;11.02;;
53253;SDS011;39148;53.332;6.922;2023-01-29T05:41:26;13.40;;;10.88;;
53253;SDS011;39148;53.332;6.922;2023-01-29T05:43:53;14.63;;;10.90;;
53253;SDS011;39148;53.332;6.922;2023-01-29T05:46:19;15.32;;;10.90;;
53253;SDS011;39148;53.332;6.922;2023-01-29T05:48:45;14.57;;;11.23;;
53253;SDS011;39148;53.332;6.922;2023-01-29T05:51:11;14.77;;;11.68;;
53253;SDS011;39148;53.332;6.922;2023-01-29T05:53:36;15.20;;;11.75;;
53253;SDS011;39148;53.332;6.922;2023-01-29T05:56:02;13.77;;;10.70;;
53253;SDS011;39148;53.332;6.922;2023-01-29T05:58:29;13.85;;;10.93;;
53253;SDS011;39148;53.332;6.922;2023-01-29T06:00:56;14.07;;;11.25;;
53253;SDS011;39148;53.332;6.922;2023-01-29T06:03:22;15.02;;;12.15;;
53253;SDS011;39148;53.332;6.922;2023-01-29T06:05:48;15.00;;;11.43;;
53253;SDS011;39148;53.332;6.922;2023-01-29T06:08:14;14.00;;;10.85;;
53253;SDS011;39148;53.332;6.922;2023-01-29T06:10:40;14.63;;;11.55;;
53253;SDS011;39148;53.332;6.922;2023-01-29T06:13:06;14.32;;;11.45;;
53253;SDS011;39148;53.332;6.922;2023-01-29T06:15:32;15.07;;;11.57;;
53253;SDS011;39148;53.332;6.922;2023-01-29T06:17:57;14.70;;;11.20;;
53253;SDS011;39148;53.332;6.922;2023-01-29T06:20:23;14.77;;;11.13;;
53253;SDS011;39148;53.332;6.922;2023-01-29T06:22:49;14.88;;;10.95;;
53253;SDS011;39148;53.332;6.922;2023-01-29T06:25:15;14.75;;;11.50;;
53253;SDS011;39148;53.332;6.922;2023-01-29T06:27:41;15.00;;;11.73;;
53253;SDS011;39148;53.332;6.922;2023-01-29T06:30:07;14.63;;;11.85;;
53253;SDS011;39148;53.332;6.922;2023-01-29T06:32:33;14.93;;;11.70;;
53253;SDS011;39148;53.332;6.922;2023-01-29T06:35:00;15.40;;;11.15;;
53253;SDS011;39148;53.332;6.922;2023-01-29T06:37:26;15.77;;;12.18;;
53253;SDS011;39148;53.332;6.922;2023-01-29T06:39:52;15.50;;;12.52;;
53253;SDS011;39148;53.332;6.922;2023-01-29T06:42:18;15.68;;;11.70;;
53253;SDS011;39148;53.332;6.922;2023-01-29T06:44:44;16.15;;;12.50;;
53253;SDS011;39148;53.332;6.922;2023-01-29T06:47:10;13.57;;;10.77;;
53253;SDS011;39148;53.332;6.922;2023-01-29T06:49:36;14.27;;;11.30;;
53253;SDS011;39148;53.332;6.922;2023-01-29T06:52:02;14.80;;;11.40;;
53253;SDS011;39148;53.332;6.922;2023-01-29T06:54:28;13.73;;;10.95;;
53253;SDS011;39148;53.332;6.922;2023-01-29T06:56:54;13.35;;;10.95;;
53253;SDS011;39148;53.332;6.922;2023-01-29T06:59:20;14.43;;;10.80;;
53253;SDS011;39148;53.332;6.922;2023-01-29T07:01:46;14.45;;;11.60;;
53253;SDS011;39148;53.332;6.922;2023-01-29T07:04:12;15.27;;;11.30;;
53253;SDS011;39148;53.332;6.922;2023-01-29T07:06:38;14.77;;;12.05;;
53253;SDS011;39148;53.332;6.922;2023-01-29T07:09:04;14.55;;;11.07;;
53253;SDS011;39148;53.332;6.922;2023-01-29T07:11:30;13.88;;;11.27;;
53253;SDS011;39148;53.332;6.922;2023-01-29T07:13:56;14.50;;;11.43;;
53253;SDS011;39148;53.332;6.922;2023-01-29T07:16:22;15.65;;;11.52;;
53253;SDS011;39148;53.332;6.922;2023-01-29T07:18:48;14.75;;;11.48;;
53253;SDS011;39148;53.332;6.922;2023-01-29T07:21:14;16.02;;;12.65;;
53253;SDS011;39148;53.332;6.922;2023-01-29T07:23:40;19.58;;;11.55;;
53253;SDS011;39148;53.332;6.922;2023-01-29T07:26:05;16.25;;;11.75;;
53253;SDS011;39148;53.332;6.922;2023-01-29T07:28:35;15.55;;;11.73;;
53253;SDS011;39148;53.332;6.922;2023-01-29T07:31:02;14.93;;;11.82;;
53253;SDS011;39148;53.332;6.922;2023-01-29T07:33:28;16.52;;;12.60;;
53253;SDS011;39148;53.332;6.922;2023-01-29T07:35:54;16.67;;;12.45;;
53253;SDS011;39148;53.332;6.922;2023-01-29T07:38:20;17.00;;;12.93;;
53253;SDS011;39148;53.332;6.922;2023-01-29T07:40:46;17.00;;;12.82;;
53253;SDS011;39148;53.332;6.922;2023-01-29T07:43:13;18.45;;;13.63;;
53253;SDS011;39148;53.332;6.922;2023-01-29T07:45:40;17.60;;;13.82;;
53253;SDS011;39148;53.332;6.922;2023-01-29T07:48:06;16.88;;;13.30;;
53253;SDS011;39148;53.332;6.922;2023-01-29T07:50:34;19.35;;;13.93;;
53253;SDS011;39148;53.332;6.922;2023-01-29T07:53:00;17.95;;;14.27;;
53253;SDS011;39148;53.332;6.922;2023-01-29T07:55:27;18.30;;;13.90;;
53253;SDS011;39148;53.332;6.922;2023-01-29T07:57:57;18.38;;;13.05;;
53253;SDS011;39148;53.332;6.922;2023-01-29T08:00:23;19.33;;;13.87;;
53253;SDS011;39148;53.332;6.922;2023-01-29T08:02:49;17.50;;;13.48;;
53253;SDS011;39148;53.332;6.922;2023-01-29T08:05:15;16.98;;;13.73;;
53253;SDS011;39148;53.332;6.922;2023-01-29T08:07:41;18.50;;;13.32;;
53253;SDS011;39148;53.332;6.922;2023-01-29T08:10:07;17.27;;;14.07;;
53253;SDS011;39148;53.332;6.922;2023-01-29T08:12:34;17.95;;;12.95;;
53253;SDS011;39148;53.332;6.922;2023-01-29T08:14:59;18.30;;;13.00;;
53253;SDS011;39148;53.332;6.922;2023-01-29T08:17:25;18.23;;;13.52;;
53253;SDS011;39148;53.332;6.922;2023-01-29T08:19:51;17.30;;;13.30;;
53253;SDS011;39148;53.332;6.922;2023-01-29T08:22:17;17.58;;;13.30;;
53253;SDS011;39148;53.332;6.922;2023-01-29T08:24:43;16.40;;;13.50;;
53253;SDS011;39148;53.332;6.922;2023-01-29T08:27:09;16.90;;;13.45;;
53253;SDS011;39148;53.332;6.922;2023-01-29T08:29:35;17.95;;;14.20;;
53253;SDS011;39148;53.332;6.922;2023-01-29T08:32:01;17.45;;;13.43;;
53253;SDS011;39148;53.332;6.922;2023-01-29T08:34:27;17.20;;;14.38;;
53253;SDS011;39148;53.332;6.922;2023-01-29T08:36:53;18.10;;;14.23;;
53253;SDS011;39148;53.332;6.922;2023-01-29T08:39:19;17.92;;;14.38;;
53253;SDS011;39148;53.332;6.922;2023-01-29T08:41:45;17.55;;;14.50;;
53253;SDS011;39148;53.332;6.922;2023-01-29T08:44:11;18.05;;;13.73;;
53253;SDS011;39148;53.332;6.922;2023-01-29T08:46:37;20.02;;;14.10;;
53253;SDS011;39148;53.332;6.922;2023-01-29T08:49:05;18.23;;;14.10;;
53253;SDS011;39148;53.332;6.922;2023-01-29T08:51:31;17.30;;;14.13;;
53253;SDS011;39148;53.332;6.922;2023-01-29T08:53:57;18.15;;;13.85;;
53253;SDS011;39148;53.332;6.922;2023-01-29T08:56:23;18.88;;;14.10;;
53253;SDS011;39148;53.332;6.922;2023-01-29T08:58:49;18.15;;;13.63;;
53253;SDS011;39148;53.332;6.922;2023-01-29T09:01:15;18.55;;;14.77;;
53253;SDS011;39148;53.332;6.922;2023-01-29T09:03:41;18.10;;;14.10;;
53253;SDS011;39148;53.332;6.922;2023-01-29T09:06:09;17.33;;;14.48;;
53253;SDS011;39148;53.332;6.922;2023-01-29T09:08:35;20.20;;;15.10;;
53253;SDS011;39148;53.332;6.922;2023-01-29T09:11:01;18.92;;;14.52;;
53253;SDS011;39148;53.332;6.922;2023-01-29T09:13:28;18.17;;;14.77;;
53253;SDS011;39148;53.332;6.922;2023-01-29T09:15:57;17.13;;;14.27;;
53253;SDS011;39148;53.332;6.922;2023-01-29T09:18:23;17.60;;;14.18;;
53253;SDS011;39148;53.332;6.922;2023-01-29T09:20:49;19.10;;;13.98;;
53253;SDS011;39148;53.332;6.922;2023-01-29T09:23:14;19.25;;;15.50;;
53253;SDS011;39148;53.332;6.922;2023-01-29T09:25:41;19.65;;;14.85;;
53253;SDS011;39148;53.332;6.922;2023-01-29T09:28:08;17.85;;;14.55;;
53253;SDS011;39148;53.332;6.922;2023-01-29T09:30:34;19.23;;;14.07;;
53253;SDS011;39148;53.332;6.922;2023-01-29T09:33:02;18.08;;;14.18;;
53253;SDS011;39148;53.332;6.922;2023-01-29T09:35:28;19.42;;;14.80;;
53253;SDS011;39148;53.332;6.922;2023-01-29T09:37:54;17.95;;;14.65;;
53253;SDS011;39148;53.332;6.922;2023-01-29T09:42:53;17.48;;;14.05;;
53253;SDS011;39148;53.332;6.922;2023-01-29T09:45:28;18.60;;;14.63;;
53253;SDS011;39148;53.332;6.922;2023-01-29T09:47:56;19.88;;;15.20;;
53253;SDS011;39148;53.332;6.922;2023-01-29T09:50:26;19.25;;;15.20;;
53253;SDS011;39148;53.332;6.922;2023-01-29T09:57:47;17.38;;;14.77;;
53253;SDS011;39148;53.332;6.922;2023-01-29T10:00:19;19.63;;;14.95;;
53253;SDS011;39148;53.332;6.922;2023-01-29T10:21:11;18.42;;;14.38;;
53253;SDS011;39148;53.332;6.922;2023-01-29T10:26:13;18.40;;;14.48;;
53253;SDS011;39148;53.332;6.922;2023-01-29T10:28:43;18.65;;;14.60;;
53253;SDS011;39148;53.332;6.922;2023-01-29T10:33:53;17.70;;;14.10;;
53253;SDS011;39148;53.332;6.922;2023-01-29T10:36:20;19.45;;;15.13;;
53253;SDS011;39148;53.332;6.922;2023-01-29T10:38:50;21.48;;;15.30;;
53253;SDS011;39148;53.332;6.922;2023-01-29T10:43:50;20.40;;;15.70;;
53253;SDS011;39148;53.332;6.922;2023-01-29T10:48:59;19.52;;;14.80;;
53253;SDS011;39148;53.332;6.922;2023-01-29T10:53:59;19.48;;;14.43;;
53253;SDS011;39148;53.332;6.922;2023-01-29T10:56:30;19.40;;;15.32;;
53253;SDS011;39148;53.332;6.922;2023-01-29T10:59:05;18.55;;;14.93;;
53253;SDS011;39148;53.332;6.922;2023-01-29T11:01:35;19.70;;;15.15;;
53253;SDS011;39148;53.332;6.922;2023-01-29T11:04:02;20.42;;;15.02;;
53253;SDS011;39148;53.332;6.922;2023-01-29T11:06:32;18.65;;;15.23;;
53253;SDS011;39148;53.332;6.922;2023-01-29T11:14:00;20.67;;;15.52;;
53253;SDS011;39148;53.332;6.922;2023-01-29T11:16:31;18.80;;;15.30;;
53253;SDS011;39148;53.332;6.922;2023-01-29T11:19:04;20.42;;;15.35;;
53253;SDS011;39148;53.332;6.922;2023-01-29T11:21:30;19.73;;;14.77;;
53253;SDS011;39148;53.332;6.922;2023-01-29T11:24:08;20.38;;;15.25;;
53253;SDS011;39148;53.332;6.922;2023-01-29T11:26:37;20.48;;;15.20;;
53253;SDS011;39148;53.332;6.922;2023-01-29T11:29:04;20.60;;;15.43;;
53253;SDS011;39148;53.332;6.922;2023-01-29T11:31:39;20.67;;;15.70;;
53253;SDS011;39148;53.332;6.922;2023-01-29T11:34:12;20.60;;;15.45;;
53253;SDS011;39148;53.332;6.922;2023-01-29T11:36:42;19.42;;;15.65;;
53253;SDS011;39148;53.332;6.922;2023-01-29T11:41:41;18.75;;;14.57;;
53253;SDS011;39148;53.332;6.922;2023-01-29T11:44:33;22.23;;;15.68;;
53253;SDS011;39148;53.332;6.922;2023-01-29T11:49:35;20.42;;;15.77;;
53253;SDS011;39148;53.332;6.922;2023-01-29T11:52:03;18.20;;;13.75;;
53253;SDS011;39148;53.332;6.922;2023-01-29T11:54:31;19.88;;;15.00;;
53253;SDS011;39148;53.332;6.922;2023-01-29T11:56:59;20.33;;;15.95;;
53253;SDS011;39148;53.332;6.922;2023-01-29T11:59:41;20.10;;;15.98;;
53253;SDS011;39148;53.332;6.922;2023-01-29T12:04:39;21.58;;;16.38;;
53253;SDS011;39148;53.332;6.922;2023-01-29T12:07:09;18.58;;;14.73;;
53253;SDS011;39148;53.332;6.922;2023-01-29T12:09:36;16.98;;;13.48;;
53253;SDS011;39148;53.332;6.922;2023-01-29T12:14:47;21.38;;;15.32;;
53253;SDS011;39148;53.332;6.922;2023-01-29T12:17:26;21.65;;;14.52;;
53253;SDS011;39148;53.332;6.922;2023-01-29T12:20:04;18.02;;;13.95;;
53253;SDS011;39148;53.332;6.922;2023-01-29T12:25:24;19.13;;;13.65;;
53253;SDS011;39148;53.332;6.922;2023-01-29T12:27:59;16.88;;;13.20;;
53253;SDS011;39148;53.332;6.922;2023-01-29T12:31:04;17.33;;;13.65;;
53253;SDS011;39148;53.332;6.922;2023-01-29T12:35:52;17.63;;;13.15;;
53253;SDS011;39148;53.332;6.922;2023-01-29T12:38:25;18.27;;;13.82;;
53253;SDS011;39148;53.332;6.922;2023-01-29T12:40:56;18.85;;;14.00;;
53253;SDS011;39148;53.332;6.922;2023-01-29T12:43:37;17.23;;;13.15;;
53253;SDS011;39148;53.332;6.922;2023-01-29T12:46:16;16.38;;;12.73;;
53253;SDS011;39148;53.332;6.922;2023-01-29T12:48:43;18.80;;;14.05;;
53253;SDS011;39148;53.332;6.922;2023-01-29T12:51:12;18.27;;;13.38;;
53253;SDS011;39148;53.332;6.922;2023-01-29T12:53:44;17.52;;;13.23;;
53253;SDS011;39148;53.332;6.922;2023-01-29T12:56:26;15.48;;;11.93;;
53253;SDS011;39148;53.332;6.922;2023-01-29T12:58:54;17.30;;;12.93;;
53253;SDS011;39148;53.332;6.922;2023-01-29T13:04:04;18.08;;;14.02;;
53253;SDS011;39148;53.332;6.922;2023-01-29T13:06:33;16.88;;;13.25;;
53253;SDS011;39148;53.332;6.922;2023-01-29T13:09:07;16.80;;;12.85;;
53253;SDS011;39148;53.332;6.922;2023-01-29T13:11:38;16.50;;;12.57;;
53253;SDS011;39148;53.332;6.922;2023-01-29T13:14:12;16.52;;;13.13;;
53253;SDS011;39148;53.332;6.922;2023-01-29T13:16:42;20.38;;;13.48;;
53253;SDS011;39148;53.332;6.922;2023-01-29T13:21:44;17.52;;;13.52;;
53253;SDS011;39148;53.332;6.922;2023-01-29T13:24:11;18.33;;;13.05;;
53253;SDS011;39148;53.332;6.922;2023-01-29T13:26:46;17.50;;;13.18;;
53253;SDS011;39148;53.332;6.922;2023-01-29T13:29:23;17.02;;;13.02;;
53253;SDS011;39148;53.332;6.922;2023-01-29T13:31:51;16.20;;;12.80;;
53253;SDS011;39148;53.332;6.922;2023-01-29T13:34:21;15.85;;;12.45;;
53253;SDS011;39148;53.332;6.922;2023-01-29T13:36:51;17.17;;;13.80;;
53253;SDS011;39148;53.332;6.922;2023-01-29T13:39:30;20.00;;;14.10;;
53253;SDS011;39148;53.332;6.922;2023-01-29T13:41:58;16.40;;;12.85;;
53253;SDS011;39148;53.332;6.922;2023-01-29T13:46:58;16.50;;;12.70;;
53253;SDS011;39148;53.332;6.922;2023-01-29T13:49:33;17.17;;;12.80;;
53253;SDS011;39148;53.332;6.922;2023-01-29T13:52:13;16.55;;;12.60;;
53253;SDS011;39148;53.332;6.922;2023-01-29T13:54:39;15.85;;;12.52;;
53253;SDS011;39148;53.332;6.922;2023-01-29T13:57:15;17.00;;;12.05;;
53253;SDS011;39148;53.332;6.922;2023-01-29T13:59:52;15.23;;;11.52;;
53253;SDS011;39148;53.332;6.922;2023-01-29T14:02:21;16.33;;;12.40;;
53253;SDS011;39148;53.332;6.922;2023-01-29T14:04:48;16.38;;;12.30;;
53253;SDS011;39148;53.332;6.922;2023-01-29T14:12:39;15.35;;;11.90;;
53253;SDS011;39148;53.332;6.922;2023-01-29T14:15:19;15.07;;;12.05;;
53253;SDS011;39148;53.332;6.922;2023-01-29T14:17:56;15.85;;;12.13;;
53253;SDS011;39148;53.332;6.922;2023-01-29T14:20:26;15.68;;;12.27;;
53253;SDS011;39148;53.332;6.922;2023-01-29T14:22:55;16.48;;;12.30;;
53253;SDS011;39148;53.332;6.922;2023-01-29T14:25:27;16.27;;;12.25;;
53253;SDS011;39148;53.332;6.922;2023-01-29T14:27:58;14.40;;;11.82;;
53253;SDS011;39148;53.332;6.922;2023-01-29T14:30:25;15.13;;;12.02;;
53253;SDS011;39148;53.332;6.922;2023-01-29T14:32:52;15.02;;;11.80;;
53253;SDS011;39148;53.332;6.922;2023-01-29T14:35:20;15.23;;;11.85;;
53253;SDS011;39148;53.332;6.922;2023-01-29T14:37:48;16.48;;;11.95;;
53253;SDS011;39148;53.332;6.922;2023-01-29T14:43:00;14.23;;;11.23;;
53253;SDS011;39148;53.332;6.922;2023-01-29T14:45:34;15.27;;;11.07;;
53253;SDS011;39148;53.332;6.922;2023-01-29T14:53:00;14.40;;;11.38;;
53253;SDS011;39148;53.332;6.922;2023-01-29T14:55:36;15.00;;;10.80;;
53253;SDS011;39148;53.332;6.922;2023-01-29T14:58:03;13.05;;;10.10;;
53253;SDS011;39148;53.332;6.922;2023-01-29T15:00:30;13.18;;;10.30;;
53253;SDS011;39148;53.332;6.922;2023-01-29T15:02:58;12.85;;;10.63;;
53253;SDS011;39148;53.332;6.922;2023-01-29T15:05:25;13.70;;;10.23;;
53253;SDS011;39148;53.332;6.922;2023-01-29T15:10:37;12.50;;;9.68;;
53253;SDS011;39148;53.332;6.922;2023-01-29T15:13:16;13.05;;;10.15;;
53253;SDS011;39148;53.332;6.922;2023-01-29T15:15:53;13.52;;;10.23;;
53253;SDS011;39148;53.332;6.922;2023-01-29T15:18:28;11.88;;;9.60;;
53253;SDS011;39148;53.332;6.922;2023-01-29T15:21:03;12.77;;;9.93;;
53253;SDS011;39148;53.332;6.922;2023-01-29T15:23:33;13.00;;;10.15;;
53253;SDS011;39148;53.332;6.922;2023-01-29T15:26:00;12.98;;;9.80;;
53253;SDS011;39148;53.332;6.922;2023-01-29T15:28:29;13.60;;;9.85;;
53253;SDS011;39148;53.332;6.922;2023-01-29T15:30:59;14.00;;;10.47;;
53253;SDS011;39148;53.332;6.922;2023-01-29T15:33:26;13.60;;;10.38;;
53253;SDS011;39148;53.332;6.922;2023-01-29T15:36:15;13.02;;;10.00;;
53253;SDS011;39148;53.332;6.922;2023-01-29T15:38:41;12.13;;;9.75;;
53253;SDS011;39148;53.332;6.922;2023-01-29T15:41:20;14.07;;;10.85;;
53253;SDS011;39148;53.332;6.922;2023-01-29T15:43:49;12.88;;;10.32;;
53253;SDS011;39148;53.332;6.922;2023-01-29T15:46:23;13.18;;;10.13;;
53253;SDS011;39148;53.332;6.922;2023-01-29T15:48:50;12.57;;;9.77;;
53253;SDS011;39148;53.332;6.922;2023-01-29T15:51:19;12.43;;;9.65;;
53253;SDS011;39148;53.332;6.922;2023-01-29T15:53:55;13.55;;;10.35;;
53253;SDS011;39148;53.332;6.922;2023-01-29T15:56:24;12.38;;;9.55;;
53253;SDS011;39148;53.332;6.922;2023-01-29T15:58:52;13.15;;;9.55;;
53253;SDS011;39148;53.332;6.922;2023-01-29T16:01:19;13.07;;;10.15;;
53253;SDS011;39148;53.332;6.922;2023-01-29T16:03:46;12.65;;;9.68;;
53253;SDS011;39148;53.332;6.922;2023-01-29T16:06:13;12.73;;;9.73;;
53253;SDS011;39148;53.332;6.922;2023-01-29T16:08:41;11.50;;;9.00;;
53253;SDS011;39148;53.332;6.922;2023-01-29T16:11:08;14.75;;;10.43;;
53253;SDS011;39148;53.332;6.922;2023-01-29T16:13:35;12.55;;;9.75;;
53253;SDS011;39148;53.332;6.922;2023-01-29T16:16:18;13.73;;;9.73;;
53253;SDS011;39148;53.332;6.922;2023-01-29T16:18:45;13.65;;;9.88;;
53253;SDS011;39148;53.332;6.922;2023-01-29T16:21:32;14.55;;;11.20;;
53253;SDS011;39148;53.332;6.922;2023-01-29T16:24:06;13.32;;;9.90;;
53253;SDS011;39148;53.332;6.922;2023-01-29T16:26:34;12.95;;;9.68;;
53253;SDS011;39148;53.332;6.922;2023-01-29T16:29:02;13.60;;;10.05;;
53253;SDS011;39148;53.332;6.922;2023-01-29T16:31:30;13.10;;;9.88;;
53253;SDS011;39148;53.332;6.922;2023-01-29T16:33:56;13.55;;;10.15;;
53253;SDS011;39148;53.332;6.922;2023-01-29T16:36:24;12.73;;;10.30;;
53253;SDS011;39148;53.332;6.922;2023-01-29T16:39:01;13.70;;;10.20;;
53253;SDS011;39148;53.332;6.922;2023-01-29T16:41:31;16.15;;;10.95;;
53253;SDS011;39148;53.332;6.922;2023-01-29T16:43:58;15.60;;;10.95;;
53253;SDS011;39148;53.332;6.922;2023-01-29T16:46:26;13.88;;;10.48;;
53253;SDS011;39148;53.332;6.922;2023-01-29T16:48:56;15.07;;;10.68;;
53253;SDS011;39148;53.332;6.922;2023-01-29T16:51:24;14.55;;;11.23;;
53253;SDS011;39148;53.332;6.922;2023-01-29T16:56:22;15.57;;;11.35;;
53253;SDS011;39148;53.332;6.922;2023-01-29T16:58:50;14.50;;;10.98;;
53253;SDS011;39148;53.332;6.922;2023-01-29T17:01:16;15.32;;;11.57;;
53253;SDS011;39148;53.332;6.922;2023-01-29T17:03:43;15.63;;;11.80;;
53253;SDS011;39148;53.332;6.922;2023-01-29T17:06:17;15.98;;;11.10;;
53253;SDS011;39148;53.332;6.922;2023-01-29T17:08:45;19.50;;;12.88;;
53253;SDS011;39148;53.332;6.922;2023-01-29T17:11:12;16.63;;;12.35;;